Time;durP1;ratioP1;P1;durP2;ratioP2;P2;SDS_P1;SDS_P2;PMS_P1;PMS_P2;Temp;Humidity;BMP_temperature;BMP_pressure;BME280_temperature;BME280_humidity;BME280_pressure;Samples;Min_cycle;Max_cycle;Signal;HPM_P1;HPM_P2
2023/08/05 00:00:01;;;;;;;12.70;4.57;;;14.80;99.90;;;;;;7280439;19;20207;-77
2023/08/05 00:02:27;;;;;;;13.13;4.70;;;14.90;99.90;;;;;;7280245;19;20200;-77
2023/08/05 00:04:53;;;;;;;9.53;4.67;;;14.80;99.90;;;;;;7291202;19;20194;-77
2023/08/05 00:07:19;;;;;;;9.17;4.50;;;14.60;99.90;;;;;;7301410;19;20204;-77
2023/08/05 00:09:45;;;;;;;14.60;4.30;;;14.60;99.90;;;;;;7280917;19;20187;-77
2023/08/05 00:12:10;;;;;;;10.07;4.43;;;14.60;99.90;;;;;;7279463;19;20196;-77
2023/08/05 00:14:37;;;;;;;10.53;4.50;;;14.60;99.90;;;;;;7280312;19;20195;-77
2023/08/05 00:17:03;;;;;;;10.53;4.33;;;14.50;99.90;;;;;;7279301;19;20645;-77
2023/08/05 00:19:29;;;;;;;10.67;4.83;;;14.50;99.90;;;;;;7278624;19;20703;-77
2023/08/05 00:21:54;;;;;;;9.20;4.30;;;14.60;99.90;;;;;;7279939;19;20328;-77
2023/08/05 00:24:20;;;;;;;11.20;4.60;;;14.60;99.90;;;;;;7307845;19;20188;-77
2023/08/05 00:26:46;;;;;;;9.60;4.80;;;14.60;99.90;;;;;;7285979;19;20202;-77
2023/08/05 00:29:11;;;;;;;9.17;4.87;;;14.40;99.90;;;;;;7287022;19;20609;-77
2023/08/05 00:31:37;;;;;;;10.10;5.20;;;14.40;99.90;;;;;;7287335;19;20189;-77
2023/08/05 00:34:03;;;;;;;13.00;5.93;;;14.30;99.90;;;;;;7285804;19;20185;-77
2023/08/05 00:36:29;;;;;;;12.77;5.80;;;14.20;99.90;;;;;;7287665;19;20291;-77
2023/08/05 00:38:54;;;;;;;10.83;6.13;;;14.20;99.90;;;;;;7286023;19;20182;-77
2023/08/05 00:41:20;;;;;;;9.90;5.67;;;14.20;99.90;;;;;;7307941;19;20196;-78
2023/08/05 00:43:46;;;;;;;9.97;5.13;;;14.10;99.90;;;;;;7286873;19;20191;-77
2023/08/05 00:46:12;;;;;;;10.20;5.13;;;14.00;99.90;;;;;;7284994;19;20244;-77
2023/08/05 00:48:38;;;;;;;12.90;5.57;;;14.00;99.90;;;;;;7286510;19;20192;-77
2023/08/05 00:51:08;;;;;;;10.70;5.10;;;14.00;99.90;;;;;;7286108;19;20255;-77
2023/08/05 00:53:37;;;;;;;11.63;5.00;;;14.00;99.90;;;;;;7283228;19;20189;-77
2023/08/05 00:56:03;;;;;;;10.60;5.80;;;13.90;99.90;;;;;;7284557;19;20200;-77
2023/08/05 00:58:31;;;;;;;9.17;5.10;;;14.00;99.90;;;;;;7283012;19;20193;-76
2023/08/05 01:00:57;;;;;;;10.70;5.40;;;14.00;99.90;;;;;;7286192;19;20698;-76
2023/08/05 01:03:23;;;;;;;9.17;5.17;;;14.10;99.90;;;;;;7294071;19;20189;-77
2023/08/05 01:05:51;;;;;;;10.93;5.37;;;14.20;99.90;;;;;;7307263;19;20197;-77
2023/08/05 01:08:20;;;;;;;11.83;5.07;;;14.10;99.90;;;;;;7286454;19;20187;-77
2023/08/05 01:10:46;;;;;;;10.53;4.83;;;14.00;99.90;;;;;;7286885;19;20188;-77
2023/08/05 01:13:13;;;;;;;12.13;5.50;;;13.90;99.90;;;;;;7286416;19;20225;-77
2023/08/05 01:15:39;;;;;;;9.30;5.17;;;13.80;99.90;;;;;;7285943;19;20252;-77
2023/08/05 01:18:06;;;;;;;11.40;5.20;;;13.80;99.90;;;;;;7284197;19;20229;-77
2023/08/05 01:20:39;;;;;;;11.27;5.40;;;13.80;99.90;;;;;;7285535;19;20789;-77
2023/08/05 01:23:39;;;;;;;9.90;5.23;;;13.90;99.90;;;;;;7285677;19;20660;-77
2023/08/05 01:26:05;;;;;;;11.77;5.03;;;13.90;99.90;;;;;;7181712;19;2004400;-77
2023/08/05 01:28:32;;;;;;;11.33;5.07;;;14.00;99.90;;;;;;7284665;19;20209;-77
2023/08/05 01:31:00;;;;;;;9.70;5.03;;;14.00;99.90;;;;;;7286110;19;20948;-77
2023/08/05 01:33:27;;;;;;;8.30;5.20;;;14.00;99.90;;;;;;7284466;19;20293;-77
2023/08/05 01:35:53;;;;;;;11.47;4.90;;;14.00;99.90;;;;;;7293665;19;20185;-77
2023/08/05 01:38:18;;;;;;;11.80;5.17;;;13.90;99.90;;;;;;7304100;19;20556;-77
2023/08/05 01:40:45;;;;;;;12.77;4.87;;;13.90;99.90;;;;;;7285423;19;20223;-77
2023/08/05 01:43:10;;;;;;;11.43;5.17;;;14.00;99.90;;;;;;7284941;19;20666;-77
2023/08/05 01:45:37;;;;;;;9.20;5.10;;;13.90;99.90;;;;;;7283224;19;20190;-77
2023/08/05 01:48:03;;;;;;;9.47;4.73;;;14.00;99.90;;;;;;7285900;19;20616;-77
2023/08/05 01:50:29;;;;;;;11.33;4.53;;;14.10;99.90;;;;;;7284524;19;20185;-77
2023/08/05 01:52:55;;;;;;;11.17;4.90;;;14.10;99.90;;;;;;7283015;19;20246;-77
2023/08/05 01:55:20;;;;;;;9.27;4.63;;;14.20;99.90;;;;;;7306131;19;20198;-77
2023/08/05 01:57:46;;;;;;;8.80;4.60;;;14.30;99.90;;;;;;7284722;19;20193;-77
2023/08/05 02:00:12;;;;;;;11.30;4.73;;;14.40;99.90;;;;;;7284237;19;20194;-77
2023/08/05 02:02:41;;;;;;;10.73;4.97;;;14.40;99.90;;;;;;7284610;19;20197;-77
2023/08/05 02:05:08;;;;;;;10.33;4.83;;;14.40;99.90;;;;;;7284039;19;20200;-77
2023/08/05 02:07:34;;;;;;;11.93;5.00;;;14.50;99.90;;;;;;7282488;19;20192;-77
2023/08/05 02:09:59;;;;;;;11.60;4.93;;;14.50;99.90;;;;;;7284860;19;20184;-77
2023/08/05 02:12:25;;;;;;;10.47;5.60;;;14.30;99.90;;;;;;7284020;19;20203;-77
2023/08/05 02:14:51;;;;;;;9.60;4.50;;;14.30;99.90;;;;;;7304573;19;20196;-77
2023/08/05 02:17:16;;;;;;;9.37;4.73;;;14.40;99.90;;;;;;7283653;19;20270;-76
2023/08/05 02:19:42;;;;;;;8.93;5.00;;;14.20;99.90;;;;;;7282050;19;20323;-77
2023/08/05 02:22:08;;;;;;;10.37;4.90;;;14.10;99.90;;;;;;7284152;19;20186;-77
2023/08/05 02:24:34;;;;;;;12.80;5.20;;;14.00;99.90;;;;;;7283023;19;20203;-77
2023/08/05 02:27:00;;;;;;;9.43;5.33;;;14.10;99.90;;;;;;7282169;19;20187;-77
2023/08/05 02:29:25;;;;;;;10.70;5.13;;;14.10;99.90;;;;;;7282825;19;20657;-77
2023/08/05 02:31:51;;;;;;;12.70;5.30;;;14.10;99.90;;;;;;7302888;19;20703;-76
2023/08/05 02:34:17;;;;;;;12.10;4.97;;;14.00;99.90;;;;;;7282913;19;20184;-76
2023/08/05 02:36:43;;;;;;;9.60;5.13;;;13.90;99.90;;;;;;7283418;19;20188;-77
2023/08/05 02:39:08;;;;;;;9.13;5.13;;;13.90;99.90;;;;;;7282116;19;20189;-77
2023/08/05 02:41:34;;;;;;;11.27;5.90;;;14.00;99.90;;;;;;7282397;19;20190;-77
2023/08/05 02:44:00;;;;;;;10.73;5.57;;;14.10;99.90;;;;;;7283708;19;20264;-76
2023/08/05 02:46:25;;;;;;;16.40;5.77;;;14.20;99.90;;;;;;7278322;19;20323;-77
2023/08/05 02:48:51;;;;;;;12.70;5.70;;;14.20;99.90;;;;;;7304271;19;20185;-77
2023/08/05 02:51:17;;;;;;;10.87;5.33;;;14.10;99.90;;;;;;7281625;19;20189;-77
2023/08/05 02:53:44;;;;;;;10.33;5.67;;;14.00;99.90;;;;;;7281121;19;20185;-77
2023/08/05 02:56:10;;;;;;;12.77;5.80;;;14.10;99.90;;;;;;7283949;19;20199;-77
2023/08/05 02:58:36;;;;;;;11.77;6.13;;;14.10;99.90;;;;;;7282056;19;20248;-77
2023/08/05 03:01:08;;;;;;;11.97;6.30;;;14.20;99.90;;;;;;7284224;19;20196;-77
2023/08/05 03:03:35;;;;;;;11.93;5.87;;;14.30;99.90;;;;;;7280810;19;20190;-76
2023/08/05 03:06:01;;;;;;;12.13;5.70;;;14.40;99.90;;;;;;7281680;19;20204;-77
2023/08/05 03:08:27;;;;;;;13.57;6.10;;;14.50;99.90;;;;;;7282991;19;20268;-77
2023/08/05 03:11:00;;;;;;;13.80;6.03;;;14.60;99.90;;;;;;7292878;19;20264;-77
2023/08/05 03:13:26;;;;;;;11.83;6.23;;;14.60;99.90;;;;;;7282198;19;20181;-77
2023/08/05 03:15:54;;;;;;;10.57;6.20;;;14.50;99.90;;;;;;7285247;19;20182;-77
2023/08/05 03:18:20;;;;;;;13.37;6.60;;;14.40;99.90;;;;;;7302903;19;20568;-76
2023/08/05 03:20:47;;;;;;;15.80;6.43;;;14.50;99.90;;;;;;7281206;19;20180;-77
2023/08/05 03:23:15;;;;;;;13.23;6.40;;;14.60;99.90;;;;;;7281542;19;20181;-77
2023/08/05 03:25:46;;;;;;;13.97;6.57;;;14.60;99.90;;;;;;7280861;19;20781;-77
2023/08/05 03:28:12;;;;;;;12.53;6.13;;;14.60;99.90;;;;;;7280119;19;20208;-77
2023/08/05 03:30:43;;;;;;;12.53;5.73;;;14.60;99.90;;;;;;7281935;19;20540;-77
2023/08/05 03:33:15;;;;;;;11.73;6.23;;;14.70;99.90;;;;;;7282447;19;20244;-77
2023/08/05 03:35:45;;;;;;;14.27;6.00;;;14.70;99.90;;;;;;7281616;19;20684;-77
2023/08/05 03:38:15;;;;;;;11.43;6.43;;;14.70;99.90;;;;;;7281790;19;20634;-77
2023/08/05 03:40:41;;;;;;;11.57;5.80;;;14.60;99.90;;;;;;7281284;19;20245;-79
2023/08/05 03:43:07;;;;;;;10.73;6.00;;;14.50;99.90;;;;;;7281467;19;20192;-76
2023/08/05 03:45:33;;;;;;;11.47;5.73;;;14.40;99.90;;;;;;7280024;19;20648;-75
2023/08/05 03:47:59;;;;;;;11.63;5.77;;;14.40;99.90;;;;;;7280373;19;20312;-76
2023/08/05 03:50:28;;;;;;;13.03;6.07;;;14.40;99.90;;;;;;7280382;19;20846;-75
2023/08/05 03:52:54;;;;;;;12.93;6.43;;;14.40;99.90;;;;;;7283448;19;20276;-76
2023/08/05 03:55:21;;;;;;;14.13;6.47;;;14.30;99.90;;;;;;7301855;19;20192;-76
2023/08/05 03:57:47;;;;;;;13.30;6.30;;;14.30;99.90;;;;;;7281094;19;20181;-76
2023/08/05 04:00:14;;;;;;;14.63;6.43;;;14.20;99.90;;;;;;7287745;19;20178;-76
2023/08/05 04:02:41;;;;;;;14.03;6.50;;;14.20;99.90;;;;;;7290099;19;20664;-77
2023/08/05 04:05:08;;;;;;;13.37;6.57;;;14.30;99.90;;;;;;7286487;19;20659;-77
2023/08/05 04:07:34;;;;;;;10.43;6.73;;;14.50;99.90;;;;;;7288035;19;20221;-77
2023/08/05 04:10:00;;;;;;;16.93;7.10;;;14.60;99.90;;;;;;7288052;19;20185;-77
2023/08/05 04:12:26;;;;;;;14.53;7.30;;;14.60;99.90;;;;;;7287088;19;20189;-77
2023/08/05 04:14:53;;;;;;;14.80;7.50;;;14.50;99.90;;;;;;7306530;19;20190;-78
2023/08/05 04:17:21;;;;;;;12.70;6.57;;;14.50;99.90;;;;;;7309317;19;20198;-77
2023/08/05 04:19:48;;;;;;;12.93;6.53;;;14.40;99.90;;;;;;7287178;19;20185;-78
2023/08/05 04:22:16;;;;;;;13.50;6.83;;;14.30;99.90;;;;;;7288317;19;20202;-76
2023/08/05 04:24:45;;;;;;;13.30;7.17;;;14.30;99.90;;;;;;7285576;19;20193;-77
2023/08/05 04:27:11;;;;;;;15.30;6.57;;;14.20;99.90;;;;;;7287706;19;20217;-78
2023/08/05 04:29:37;;;;;;;13.33;6.63;;;14.20;99.90;;;;;;7287515;19;20752;-78
2023/08/05 04:32:03;;;;;;;14.43;6.63;;;14.20;99.90;;;;;;7285332;19;20193;-78
2023/08/05 04:34:35;;;;;;;14.93;6.77;;;14.20;99.90;;;;;;7286514;19;20181;-78
2023/08/05 04:37:18;;;;;;;13.47;6.73;;;14.20;99.90;;;;;;7287626;19;20185;-77
2023/08/05 04:39:45;;;;;;;12.07;6.03;;;14.20;99.90;;;;;;7286215;19;20179;-77
2023/08/05 04:42:11;;;;;;;12.07;6.03;;;14.20;99.90;;;;;;7286128;19;20185;-78
2023/08/05 04:44:40;;;;;;;11.23;5.90;;;14.10;99.90;;;;;;7288502;19;20187;-78
2023/08/05 04:47:12;;;;;;;13.20;6.73;;;14.20;99.90;;;;;;7287365;19;20204;-77
2023/08/05 04:49:42;;;;;;;12.63;6.77;;;14.50;99.90;;;;;;7287615;19;20193;-78
2023/08/05 04:52:08;;;;;;;15.47;6.77;;;14.70;99.90;;;;;;7284218;19;20196;-78
2023/08/05 04:54:43;;;;;;;18.10;6.50;;;14.80;99.90;;;;;;7286032;19;20264;-78
2023/08/05 04:57:09;;;;;;;17.50;6.40;;;15.10;99.90;;;;;;7286687;19;20191;-78
2023/08/05 04:59:35;;;;;;;10.13;5.50;;;15.70;99.90;;;;;;7285993;19;20191;-78
2023/08/05 05:02:01;;;;;;;10.33;5.30;;;16.30;99.90;;;;;;7284837;19;20226;-78
2023/08/05 05:04:27;;;;;;;10.57;5.17;;;16.60;99.90;;;;;;7285377;19;20638;-78
2023/08/05 05:06:53;;;;;;;8.70;4.80;;;17.10;99.90;;;;;;7299485;19;20213;-78
2023/08/05 05:09:19;;;;;;;9.57;4.80;;;17.60;99.90;;;;;;7304272;19;20197;-78
2023/08/05 05:11:45;;;;;;;9.80;4.70;;;17.60;99.90;;;;;;7286682;19;20193;-78
2023/08/05 05:14:11;;;;;;;11.00;5.40;;;17.50;99.90;;;;;;7285894;19;20203;-78
2023/08/05 05:16:36;;;;;;;12.47;5.90;;;17.30;99.90;;;;;;7289259;19;20211;-78
2023/08/05 05:19:02;;;;;;;13.20;6.70;;;17.20;99.90;;;;;;7288473;19;20193;-78
2023/08/05 05:21:29;;;;;;;15.43;8.70;;;17.10;99.90;;;;;;7287196;19;20913;-78
2023/08/05 05:23:55;;;;;;;16.10;8.93;;;17.10;99.90;;;;;;7290421;19;20202;-78
2023/08/05 05:26:21;;;;;;;14.17;8.30;;;17.00;99.90;;;;;;7309664;19;20188;-78
2023/08/05 05:28:46;;;;;;;18.20;9.30;;;17.00;99.90;;;;;;7287312;19;20173;-78
2023/08/05 05:31:12;;;;;;;16.73;9.73;;;16.90;99.90;;;;;;7285615;19;20208;-78
2023/08/05 05:33:38;;;;;;;21.23;10.67;;;16.80;99.90;;;;;;7285683;19;20198;-77
2023/08/05 05:36:04;;;;;;;19.00;11.07;;;16.60;99.90;;;;;;7285177;19;20188;-77
2023/08/05 05:38:29;;;;;;;21.33;11.13;;;16.60;99.90;;;;;;7284130;19;20182;-76
2023/08/05 05:40:55;;;;;;;22.33;12.17;;;16.70;99.90;;;;;;7286150;19;20192;-76
2023/08/05 05:43:21;;;;;;;22.83;12.30;;;16.50;99.90;;;;;;7307712;19;20253;-77
2023/08/05 05:45:47;;;;;;;25.00;13.10;;;16.60;99.90;;;;;;7284193;19;20200;-77
2023/08/05 05:48:12;;;;;;;28.57;13.20;;;16.50;99.90;;;;;;7285538;19;20938;-77
2023/08/05 05:50:41;;;;;;;25.63;14.10;;;16.60;99.90;;;;;;7284093;19;20660;-78
2023/08/05 05:53:08;;;;;;;24.90;14.03;;;16.70;99.90;;;;;;7284589;19;20188;-78
2023/08/05 05:55:34;;;;;;;27.90;15.77;;;16.70;99.90;;;;;;7284633;19;20191;-78
2023/08/05 05:58:00;;;;;;;28.33;14.70;;;16.80;99.90;;;;;;7285751;19;20561;-78
2023/08/05 06:00:25;;;;;;;27.30;14.50;;;16.90;99.90;;;;;;7285038;19;20211;-77
2023/08/05 06:02:51;;;;;;;27.60;15.90;;;16.80;99.90;;;;;;7304836;19;20198;-78
2023/08/05 06:05:17;;;;;;;28.73;15.43;;;16.90;99.90;;;;;;7284942;19;20200;-78
2023/08/05 06:07:44;;;;;;;28.23;15.23;;;16.90;99.90;;;;;;7286912;19;20208;-78
2023/08/05 06:10:10;;;;;;;28.23;14.47;;;17.00;99.90;;;;;;7283724;19;20192;-78
2023/08/05 06:12:37;;;;;;;29.43;15.20;;;17.20;99.90;;;;;;7282971;19;20196;-78
2023/08/05 06:15:06;;;;;;;25.80;14.87;;;17.20;99.90;;;;;;7284990;19;20712;-78
2023/08/05 06:17:32;;;;;;;25.33;14.30;;;17.20;99.90;;;;;;7283970;19;20201;-78
2023/08/05 06:19:58;;;;;;;25.70;14.03;;;17.20;99.90;;;;;;7283982;19;20190;-76
2023/08/05 06:22:24;;;;;;;23.20;14.23;;;17.20;99.90;;;;;;7295665;19;20188;-77
2023/08/05 06:24:50;;;;;;;25.70;13.73;;;17.30;99.90;;;;;;7304665;19;20214;-76
2023/08/05 06:27:17;;;;;;;24.50;14.13;;;17.30;99.90;;;;;;7281712;19;20189;-77
2023/08/05 06:29:43;;;;;;;25.17;13.40;;;17.50;99.90;;;;;;7281350;19;20205;-77
2023/08/05 06:32:12;;;;;;;22.47;13.83;;;17.60;99.90;;;;;;7281139;19;20190;-77
2023/08/05 06:34:38;;;;;;;23.37;13.40;;;17.60;99.90;;;;;;7283264;19;20281;-77
2023/08/05 06:37:04;;;;;;;27.00;13.10;;;17.50;99.90;;;;;;7280749;19;20652;-77
2023/08/05 06:39:32;;;;;;;22.47;13.53;;;17.60;99.90;;;;;;7282258;19;20196;-77
2023/08/05 06:41:59;;;;;;;23.57;13.13;;;17.80;99.90;;;;;;7283568;19;20192;-77
2023/08/05 06:44:28;;;;;;;23.90;13.07;;;17.90;99.90;;;;;;7280903;19;20254;-77
2023/08/05 06:46:54;;;;;;;20.40;12.70;;;18.10;99.90;;;;;;7293691;19;20261;-78
2023/08/05 06:49:20;;;;;;;18.83;12.00;;;18.50;99.90;;;;;;7304009;19;20203;-77
2023/08/05 06:51:47;;;;;;;18.33;11.33;;;18.80;99.90;;;;;;7282034;19;20238;-77
2023/08/05 06:54:13;;;;;;;19.67;10.50;;;18.80;99.90;;;;;;7280629;19;20228;-77
2023/08/05 06:56:38;;;;;;;19.70;11.40;;;18.80;99.90;;;;;;7282695;19;20226;-76
2023/08/05 06:59:04;;;;;;;18.97;11.27;;;18.90;99.90;;;;;;7279410;19;20193;-77
2023/08/05 07:01:30;;;;;;;16.50;10.63;;;19.00;99.90;;;;;;7281139;19;20205;-77
2023/08/05 07:03:56;;;;;;;16.63;9.73;;;19.20;99.90;;;;;;7281102;19;20195;-77
2023/08/05 07:06:22;;;;;;;16.97;10.13;;;19.30;99.90;;;;;;7303519;19;20295;-76
2023/08/05 07:08:48;;;;;;;19.60;9.70;;;19.30;99.90;;;;;;7280289;19;20202;-76
2023/08/05 07:11:14;;;;;;;18.13;10.00;;;19.10;99.90;;;;;;7279250;19;20263;-76
2023/08/05 07:13:39;;;;;;;15.77;9.50;;;18.90;99.90;;;;;;7280561;19;20665;-76
2023/08/05 07:16:05;;;;;;;17.17;10.07;;;19.00;99.90;;;;;;7281583;19;20196;-77
2023/08/05 07:18:31;;;;;;;20.03;9.77;;;18.80;99.90;;;;;;7277640;19;20187;-76
2023/08/05 07:20:57;;;;;;;25.27;10.20;;;18.80;99.90;;;;;;7281617;19;20555;-76
2023/08/05 07:23:24;;;;;;;18.60;10.00;;;19.20;99.90;;;;;;7301081;19;20190;-76
2023/08/05 07:25:50;;;;;;;20.37;9.53;;;19.20;99.90;;;;;;7301882;19;20986;-77
2023/08/05 07:28:16;;;;;;;17.77;9.90;;;19.30;99.90;;;;;;7281648;19;20267;-76
2023/08/05 07:30:41;;;;;;;17.47;9.10;;;19.50;99.90;;;;;;7281113;19;20192;-77
2023/08/05 07:33:09;;;;;;;19.07;9.23;;;19.50;99.90;;;;;;7285815;19;20539;-77
2023/08/05 07:35:36;;;;;;;16.93;8.90;;;19.30;99.90;;;;;;7295878;19;20300;-77
2023/08/05 07:38:04;;;;;;;17.83;9.13;;;19.30;99.90;;;;;;7293974;19;20551;-77
2023/08/05 07:40:31;;;;;;;14.93;7.47;;;19.40;99.90;;;;;;7294968;19;20191;-77
2023/08/05 07:42:59;;;;;;;15.60;7.70;;;19.40;99.90;;;;;;7293334;19;20188;-77
2023/08/05 07:45:26;;;;;;;15.80;7.50;;;19.60;99.90;;;;;;7301359;19;20192;-77
2023/08/05 07:47:52;;;;;;;12.93;6.47;;;19.70;99.90;;;;;;7316839;19;20228;-77
2023/08/05 07:50:22;;;;;;;15.80;6.20;;;19.30;99.90;;;;;;7293868;19;20183;-77
2023/08/05 07:52:51;;;;;;;14.87;7.00;;;19.20;99.90;;;;;;7292074;19;20908;-77
2023/08/05 07:55:16;;;;;;;17.83;5.90;;;19.40;99.90;;;;;;7293721;19;20211;-77
2023/08/05 07:57:42;;;;;;;14.83;5.87;;;19.20;99.90;;;;;;7292563;19;20188;-77
2023/08/05 08:00:12;;;;;;;13.57;5.20;;;19.40;99.90;;;;;;7291536;19;20681;-77
2023/08/05 08:02:40;;;;;;;12.27;4.67;;;19.60;99.90;;;;;;7294258;19;20202;-77
2023/08/05 08:05:08;;;;;;;12.83;4.60;;;19.40;99.90;;;;;;7292831;19;20215;-77
2023/08/05 08:07:33;;;;;;;11.50;4.23;;;19.40;99.90;;;;;;7293183;19;20348;-77
2023/08/05 08:09:59;;;;;;;10.97;4.50;;;19.30;99.90;;;;;;7292580;19;20786;-77
2023/08/05 08:12:25;;;;;;;14.80;4.60;;;19.40;99.90;;;;;;7296045;19;20194;-76
2023/08/05 08:14:51;;;;;;;12.33;3.70;;;19.60;99.90;;;;;;7316329;19;20178;-77
2023/08/05 08:17:16;;;;;;;9.33;3.50;;;19.80;99.90;;;;;;7293850;19;20184;-77
2023/08/05 08:19:45;;;;;;;7.83;3.43;;;19.70;99.90;;;;;;7291386;19;20645;-77
2023/08/05 08:22:11;;;;;;;12.43;3.30;;;20.00;99.90;;;;;;7294268;19;20190;-77
2023/08/05 08:24:37;;;;;;;8.20;3.13;;;20.40;99.90;;;;;;7293692;19;20242;-77
2023/08/05 08:27:02;;;;;;;9.47;3.00;;;20.90;99.90;;;;;;7291976;19;20189;-77
2023/08/05 08:29:28;;;;;;;11.27;2.93;;;20.90;99.90;;;;;;7293669;19;20184;-77
2023/08/05 08:31:54;;;;;;;11.20;2.90;;;21.40;99.90;;;;;;7308003;19;20720;-77
2023/08/05 08:34:19;;;;;;;7.83;2.83;;;21.80;99.90;;;;;;7305363;19;20182;-78
2023/08/05 08:36:45;;;;;;;9.80;2.30;;;21.90;99.90;;;;;;7291376;19;20738;-78
2023/08/05 08:39:11;;;;;;;10.50;2.50;;;22.80;99.90;;;;;;7290945;19;20188;-78
2023/08/05 08:41:43;;;;;;;8.47;2.40;;;23.20;99.90;;;;;;7286681;19;20193;-78
2023/08/05 08:44:11;;;;;;;5.07;1.83;;;23.20;99.90;;;;;;7285990;19;20248;-78
2023/08/05 08:46:37;;;;;;;7.87;2.00;;;25.00;99.90;;;;;;7281798;19;20196;-77
2023/08/05 08:49:03;;;;;;;6.50;1.87;;;26.00;99.90;;;;;;7282981;19;20200;-76
2023/08/05 08:51:31;;;;;;;5.90;1.55;;;29.00;99.90;;;;;;7282762;19;20696;-77
2023/08/05 08:53:56;;;;;;;6.63;1.58;;;31.00;99.90;;;;;;7281929;19;20712;-77
2023/08/05 08:56:22;;;;;;;6.63;1.50;;;30.30;99.80;;;;;;7303794;19;20213;-77
2023/08/05 08:58:48;;;;;;;8.27;1.90;;;29.40;99.90;;;;;;7282656;19;20826;-77
2023/08/05 09:01:18;;;;;;;7.00;2.00;;;29.30;99.90;;;;;;7282538;19;20306;-77
2023/08/05 09:03:48;;;;;;;6.47;1.92;;;27.80;99.90;;;;;;7282499;19;20250;-77
2023/08/05 09:06:14;;;;;;;7.72;1.80;;;27.00;99.90;;;;;;7283804;19;20682;-77
2023/08/05 09:08:40;;;;;;;5.33;2.00;;;25.60;99.90;;;;;;7284032;19;20188;-77
2023/08/05 09:11:05;;;;;;;5.87;1.80;;;25.10;99.90;;;;;;7283332;19;20209;-76
2023/08/05 09:13:31;;;;;;;10.57;2.10;;;24.10;99.90;;;;;;7282705;19;20519;-77
2023/08/05 09:15:57;;;;;;;7.53;2.03;;;23.60;99.90;;;;;;7281296;19;20279;-77
2023/08/05 09:18:23;;;;;;;4.03;1.90;;;23.40;99.90;;;;;;7305747;19;20198;-78
2023/08/05 09:20:50;;;;;;;6.40;1.90;;;22.50;99.90;;;;;;7283880;19;20192;-78
2023/08/05 09:23:16;;;;;;;8.07;2.23;;;22.30;99.90;;;;;;7284732;19;20553;-77
2023/08/05 09:25:46;;;;;;;9.00;2.50;;;22.20;99.90;;;;;;7284731;19;20185;-77
2023/08/05 09:28:12;;;;;;;7.43;2.50;;;22.40;99.90;;;;;;7284261;19;20666;-79
2023/08/05 09:30:38;;;;;;;4.37;2.07;;;22.60;99.90;;;;;;7283194;19;20326;-77
2023/08/05 09:33:04;;;;;;;5.73;2.20;;;22.20;99.90;;;;;;7285412;19;20790;-77
2023/08/05 09:35:30;;;;;;;6.00;2.07;;;22.00;99.90;;;;;;7284115;19;20199;-78
2023/08/05 09:37:56;;;;;;;7.30;2.23;;;21.80;99.90;;;;;;7284919;19;20191;-77
2023/08/05 09:40:22;;;;;;;5.13;1.83;;;21.40;99.90;;;;;;7305427;19;20200;-77
2023/08/05 09:42:50;;;;;;;8.93;2.20;;;21.50;99.90;;;;;;7285126;19;20183;-78
2023/08/05 09:45:17;;;;;;;7.90;2.47;;;22.00;99.90;;;;;;7284465;19;20262;-77
2023/08/05 09:47:46;;;;;;;7.17;2.50;;;21.90;99.90;;;;;;7285271;19;20825;-77
2023/08/05 09:50:13;;;;;;;5.80;2.40;;;22.00;99.90;;;;;;7285993;19;20709;-78
2023/08/05 09:52:39;;;;;;;6.97;2.57;;;21.50;99.90;;;;;;7283603;19;20656;-78
2023/08/05 09:55:21;;;;;;;4.90;2.00;;;21.40;99.90;;;;;;7282279;19;20785;-78
2023/08/05 09:57:47;;;;;;;4.60;2.20;;;21.50;99.90;;;;;;7283101;19;20194;-77
2023/08/05 10:00:14;;;;;;;7.33;2.13;;;21.70;99.90;;;;;;7283307;19;20198;-78
2023/08/05 10:02:46;;;;;;;7.80;2.30;;;22.00;99.90;;;;;;7284217;19;20204;-77
2023/08/05 10:05:12;;;;;;;7.70;2.20;;;22.30;99.90;;;;;;7283983;19;20202;-77
2023/08/05 10:07:40;;;;;;;7.13;2.10;;;22.60;99.90;;;;;;7281224;19;20611;-77
2023/08/05 10:10:08;;;;;;;5.03;2.13;;;23.10;99.90;;;;;;7283420;19;20184;-78
2023/08/05 10:13:01;;;;;;;3.80;2.17;;;23.50;99.90;;;;;;7282759;19;20197;-77
2023/08/05 10:15:35;;;;;;;6.17;2.50;;;23.40;99.90;;;;;;7261459;19;20635;-77
2023/08/05 10:18:01;;;;;;;5.00;2.20;;;23.60;99.90;;;;;;7281520;19;20236;-77
2023/08/05 10:20:38;;;;;;;5.30;2.23;;;23.00;99.90;;;;;;7281006;19;20176;-77
2023/08/05 10:23:13;;;;;;;6.73;2.50;;;22.90;99.90;;;;;;7282973;19;20176;-77
2023/08/05 10:25:48;;;;;;;4.37;2.10;;;22.90;99.90;;;;;;7280556;19;20191;-77
2023/08/05 10:28:23;;;;;;;7.67;2.53;;;22.40;99.90;;;;;;7283938;19;20196;-78
2023/08/05 10:30:49;;;;;;;7.97;2.80;;;22.20;99.90;;;;;;7284125;19;20193;-78
2023/08/05 10:33:18;;;;;;;7.93;2.70;;;21.80;99.90;;;;;;7284581;19;20204;-76
2023/08/05 10:35:44;;;;;;;9.97;2.90;;;21.60;99.90;;;;;;7281294;19;20178;-77
2023/08/05 10:38:20;;;;;;;9.33;3.00;;;21.00;99.90;;;;;;7281423;19;20197;-76
2023/08/05 10:41:00;;;;;;;6.43;2.87;;;20.50;99.90;;;;;;7281648;19;20211;-76
2023/08/05 10:43:30;;;;;;;8.03;3.20;;;20.10;99.90;;;;;;7260598;19;20201;-77
2023/08/05 10:46:05;;;;;;;8.63;2.73;;;20.00;99.90;;;;;;7281380;19;20597;-77
2023/08/05 10:48:34;;;;;;;8.40;2.77;;;19.80;99.90;;;;;;7281533;19;20201;-77
2023/08/05 10:51:08;;;;;;;8.27;2.40;;;19.80;99.90;;;;;;7282242;19;20222;-77
2023/08/05 10:53:34;;;;;;;5.90;2.03;;;19.90;99.90;;;;;;7281195;19;20180;-76
2023/08/05 10:56:01;;;;;;;6.27;2.13;;;19.60;99.90;;;;;;7281435;19;20260;-78
2023/08/05 10:58:30;;;;;;;6.83;2.37;;;19.60;99.90;;;;;;7279460;19;20191;-77
2023/08/05 11:00:59;;;;;;;6.53;2.10;;;19.40;99.90;;;;;;7280664;19;20198;-77
2023/08/05 11:03:37;;;;;;;7.40;2.07;;;19.40;99.90;;;;;;7288411;19;20685;-77
2023/08/05 11:06:04;;;;;;;6.40;2.27;;;19.20;99.90;;;;;;7280131;19;20230;-76
2023/08/05 11:08:31;;;;;;;7.00;2.27;;;19.10;99.90;;;;;;7276807;19;20188;-76
2023/08/05 11:11:00;;;;;;;10.00;2.73;;;19.00;99.90;;;;;;7281248;19;20209;-77
2023/08/05 11:13:26;;;;;;;7.03;2.43;;;19.00;99.90;;;;;;7279115;19;20907;-77
2023/08/05 11:16:16;;;;;;;9.50;2.80;;;19.00;99.90;;;;;;7301735;19;20194;-77
2023/08/05 11:18:56;;;;;;;10.90;3.10;;;18.90;99.90;;;;;;7177922;19;2004426;-77
2023/08/05 11:21:22;;;;;;;7.50;2.50;;;19.30;99.90;;;;;;7280870;19;20299;-78
2023/08/05 11:23:49;;;;;;;10.20;2.50;;;19.60;99.90;;;;;;7281602;19;20192;-77
2023/08/05 11:26:15;;;;;;;9.80;2.70;;;19.80;99.90;;;;;;7279570;19;20202;-77
2023/08/05 11:28:44;;;;;;;7.10;2.37;;;20.20;99.90;;;;;;7281724;19;20192;-78
2023/08/05 11:31:22;;;;;;;6.97;2.40;;;20.30;99.90;;;;;;7279431;19;20194;-78
2023/08/05 11:33:48;;;;;;;8.50;2.30;;;20.40;99.90;;;;;;7279764;19;20523;-77
2023/08/05 11:36:14;;;;;;;7.93;2.40;;;20.30;99.90;;;;;;7278785;19;20260;-77
2023/08/05 11:38:40;;;;;;;7.13;2.60;;;20.30;99.90;;;;;;7280402;19;20201;-77
2023/08/05 11:41:06;;;;;;;9.23;2.47;;;20.10;99.90;;;;;;7279289;19;20193;-76
2023/08/05 11:43:32;;;;;;;7.30;2.90;;;20.10;99.90;;;;;;7278835;19;20185;-78
2023/08/05 11:45:58;;;;;;;10.73;3.10;;;20.40;99.90;;;;;;7278290;19;20179;-76
2023/08/05 11:48:27;;;;;;;9.33;2.90;;;20.60;99.90;;;;;;7301651;19;20636;-76
2023/08/05 11:50:58;;;;;;;5.70;2.47;;;20.70;99.90;;;;;;7280576;19;20185;-76
2023/08/05 11:53:28;;;;;;;11.23;3.20;;;20.70;99.90;;;;;;7275820;19;20199;-77
2023/08/05 11:55:54;;;;;;;8.40;2.70;;;20.70;99.90;;;;;;7299262;19;20753;-77
2023/08/05 11:58:21;;;;;;;9.93;2.90;;;20.70;99.90;;;;;;7277507;19;20234;-77
2023/08/05 12:00:49;;;;;;;9.07;2.90;;;20.80;99.90;;;;;;7279189;19;20193;-77
2023/08/05 12:03:15;;;;;;;9.43;3.10;;;20.80;99.90;;;;;;7276392;19;20609;-77
2023/08/05 12:05:46;;;;;;;5.90;2.80;;;20.50;99.90;;;;;;7277633;19;20187;-77
2023/08/05 12:08:12;;;;;;;9.73;2.87;;;20.40;99.90;;;;;;7277795;19;20227;-77
2023/08/05 12:10:39;;;;;;;8.57;2.70;;;20.30;99.90;;;;;;7277129;19;20203;-77
2023/08/05 12:13:09;;;;;;;6.50;2.63;;;20.40;99.90;;;;;;7278682;19;20191;-75
2023/08/05 12:15:36;;;;;;;7.23;2.50;;;20.40;99.90;;;;;;7280996;19;20282;-76
2023/08/05 12:18:04;;;;;;;8.70;2.83;;;20.60;99.90;;;;;;7278626;19;20212;-76
2023/08/05 12:20:34;;;;;;;7.37;2.57;;;20.30;99.90;;;;;;7283096;19;21060;-76
2023/08/05 12:23:03;;;;;;;5.13;2.13;;;20.30;99.90;;;;;;7286819;19;20196;-76
2023/08/05 12:25:31;;;;;;;8.83;2.10;;;20.40;99.90;;;;;;7285419;19;20185;-76
2023/08/05 12:27:57;;;;;;;6.97;2.57;;;20.20;99.90;;;;;;7285169;19;20189;-76
2023/08/05 12:30:23;;;;;;;7.27;2.13;;;20.00;99.90;;;;;;7306611;19;20185;-76
2023/08/05 12:32:50;;;;;;;4.97;2.10;;;19.50;99.90;;;;;;7283485;19;20671;-77
2023/08/05 12:35:16;;;;;;;7.13;2.17;;;19.50;99.90;;;;;;7285779;19;20190;-76
2023/08/05 12:37:42;;;;;;;5.07;2.23;;;19.50;99.90;;;;;;7283484;19;20196;-75